Time;durP1;ratioP1;P1;durP2;ratioP2;P2;SDS_P1;SDS_P2;PMS_P1;PMS_P2;Temp;Humidity;BMP_temperature;BMP_pressure;BME280_temperature;BME280_humidity;BME280_pressure;Samples;Min_cycle;Max_cycle;Signal;HPM_P1;HPM_P2
2021/09/10 00:01:27;0.00;0.00;0.62;0.00;0.00;0.62;4.20;2.90;;;28.20;36.50;;;;;;2253972;61;20475;-58
2021/09/10 00:04:12;0.00;0.00;0.62;0.00;0.00;0.62;3.47;3.17;;;28.10;36.50;;;;;;2253997;61;20812;-55
2021/09/10 00:06:57;0.00;0.00;0.62;0.00;0.00;0.62;3.40;3.10;;;28.10;36.70;;;;;;2254059;61;20415;-58
2021/09/10 00:09:41;0.00;0.00;0.62;0.00;0.00;0.62;3.60;3.17;;;28.00;36.70;;;;;;2254307;61;20356;-58
2021/09/10 00:12:26;0.00;0.00;0.62;0.00;0.00;0.62;3.97;3.60;;;28.00;37.00;;;;;;2253540;61;20787;-55
2021/09/10 00:15:11;0.00;0.00;0.62;0.00;0.00;0.62;4.03;3.43;;;28.00;37.20;;;;;;2254444;61;20367;-57
2021/09/10 00:17:57;0.00;0.00;0.62;0.00;0.00;0.62;4.37;3.97;;;27.90;37.20;;;;;;2254168;61;20394;-57
2021/09/10 00:20:42;0.00;0.00;0.62;0.00;0.00;0.62;3.40;3.10;;;27.90;37.30;;;;;;2253493;61;20392;-56
2021/09/10 00:23:26;0.00;0.00;0.62;0.00;0.00;0.62;4.33;3.93;;;27.90;37.50;;;;;;2254284;61;20355;-57
2021/09/10 00:26:11;0.00;0.00;0.62;0.00;0.00;0.62;5.00;3.63;;;27.90;37.70;;;;;;2254149;61;20364;-54
2021/09/10 00:28:56;0.00;0.00;0.62;0.00;0.00;0.62;5.60;3.63;;;27.80;37.80;;;;;;2253920;61;20395;-57
2021/09/10 00:31:40;0.00;0.00;0.62;0.00;0.00;0.62;4.60;4.20;;;27.80;37.90;;;;;;2253799;61;20634;-56
2021/09/10 00:34:26;0.00;0.00;0.62;0.00;0.00;0.62;4.80;4.30;;;27.80;38.00;;;;;;2253955;61;20653;-54
2021/09/10 00:37:10;0.00;0.00;0.62;0.00;0.00;0.62;4.10;3.80;;;27.70;38.00;;;;;;2254299;61;20367;-53
2021/09/10 00:39:55;0.00;0.00;0.62;0.00;0.00;0.62;4.70;3.83;;;27.70;38.10;;;;;;2253822;61;20364;-54
2021/09/10 00:42:39;0.00;0.00;0.62;0.00;0.00;0.62;3.60;3.30;;;27.70;38.20;;;;;;2253745;61;20363;-55
2021/09/10 00:45:24;0.00;0.00;0.62;0.00;0.00;0.62;4.40;4.00;;;27.70;38.40;;;;;;2254308;61;20387;-52
2021/09/10 00:48:09;0.00;0.00;0.62;0.00;0.00;0.62;4.83;3.67;;;27.70;38.40;;;;;;2253854;61;20364;-53
2021/09/10 00:50:56;0.00;0.00;0.62;0.00;0.00;0.62;5.00;4.47;;;27.60;38.60;;;;;;2253742;61;20410;-56
2021/09/10 00:53:40;0.00;0.00;0.62;0.00;0.00;0.62;4.80;4.40;;;27.60;38.60;;;;;;2254287;61;20743;-53
2021/09/10 00:56:25;0.00;0.00;0.62;0.00;0.00;0.62;5.20;3.70;;;27.60;38.70;;;;;;2253327;61;20475;-54
2021/09/10 00:59:10;0.00;0.00;0.62;0.00;0.00;0.62;5.17;4.20;;;27.60;38.80;;;;;;2254360;61;20480;-53
2021/09/10 01:01:55;0.00;0.00;0.62;0.00;0.00;0.62;4.27;3.87;;;27.60;38.90;;;;;;2254228;61;20423;-56
2021/09/10 01:04:41;0.00;0.00;0.62;0.00;0.00;0.62;4.27;3.70;;;27.50;38.90;;;;;;2253382;61;20371;-53
2021/09/10 01:07:27;0.00;0.00;0.62;0.00;0.00;0.62;3.97;3.67;;;27.50;38.90;;;;;;2254265;61;20360;-51
2021/09/10 01:10:12;0.00;0.00;0.62;0.00;0.00;0.62;4.30;3.47;;;27.50;38.90;;;;;;2253812;61;20363;-53
2021/09/10 01:12:58;0.00;0.00;0.62;0.00;0.00;0.62;5.43;3.70;;;27.50;39.00;;;;;;2253781;61;20427;-53
2021/09/10 01:15:42;0.00;0.00;0.62;0.00;0.00;0.62;3.87;3.57;;;27.40;39.00;;;;;;2254261;61;20363;-55
2021/09/10 01:18:27;0.00;0.00;0.62;0.00;0.00;0.62;5.40;3.80;;;27.40;39.10;;;;;;2253784;61;20396;-55
2021/09/10 01:21:11;0.00;0.00;0.62;0.00;0.00;0.62;3.80;3.50;;;27.40;39.20;;;;;;2253832;61;20778;-53
2021/09/10 01:23:57;0.00;0.00;0.62;0.00;0.00;0.62;5.60;3.70;;;27.40;39.40;;;;;;2254125;61;20507;-55
2021/09/10 01:26:43;0.00;0.00;0.62;0.00;0.00;0.62;4.00;3.70;;;27.30;39.30;;;;;;2253420;61;20368;-55
2021/09/10 01:29:28;0.00;0.00;0.62;0.00;0.00;0.62;4.50;3.93;;;27.30;39.40;;;;;;2254159;61;20364;-55
2021/09/10 01:32:13;0.00;0.00;0.62;0.00;0.00;0.62;6.30;4.10;;;27.30;39.60;;;;;;2253477;61;20802;-54
2021/09/10 01:34:57;0.00;0.00;0.62;0.00;0.00;0.62;6.03;3.70;;;27.20;39.60;;;;;;2253761;61;20724;-56
2021/09/10 01:37:42;0.00;0.00;0.62;0.00;0.00;0.62;4.70;4.17;;;27.20;39.60;;;;;;2254225;61;20363;-53
2021/09/10 01:40:27;0.00;0.00;0.62;0.00;0.00;0.62;4.00;3.57;;;27.20;39.70;;;;;;2253536;61;20363;-54
2021/09/10 01:43:15;0.00;0.00;0.62;0.00;0.00;0.62;4.00;3.60;;;27.20;40.00;;;;;;2253878;61;20394;-56
2021/09/10 01:45:59;0.00;0.00;0.62;0.00;0.00;0.62;4.43;3.40;;;27.20;40.00;;;;;;2254086;61;20435;-55
2021/09/10 01:48:44;0.00;0.00;0.62;0.00;0.00;0.62;4.43;4.03;;;27.20;40.00;;;;;;2253283;61;20953;-56
2021/09/10 01:51:30;0.00;0.00;0.62;0.00;0.00;0.62;5.30;3.80;;;27.10;40.10;;;;;;2254068;61;20426;-55
2021/09/10 01:54:14;0.00;0.00;0.62;0.00;0.00;0.62;4.47;3.80;;;27.10;40.20;;;;;;2253856;61;20396;-54
2021/09/10 01:56:59;0.00;0.00;0.62;0.00;0.00;0.62;3.63;3.00;;;27.10;40.10;;;;;;2253454;61;20375;-56
2021/09/10 01:59:46;0.00;0.00;0.62;0.00;0.00;0.62;4.20;3.77;;;27.10;40.10;;;;;;2254015;61;20364;-52
2021/09/10 02:02:30;0.00;0.00;0.62;0.00;0.00;0.62;4.27;3.23;;;27.20;40.20;;;;;;2253565;61;20698;-56
2021/09/10 02:05:15;0.00;0.00;0.62;0.00;0.00;0.62;4.03;3.67;;;27.20;40.20;;;;;;2253713;61;20585;-53
2021/09/10 02:08:00;0.00;0.00;0.62;0.00;0.00;0.62;4.47;4.07;;;27.20;40.30;;;;;;2254017;61;20347;-54
2021/09/10 02:10:44;0.00;0.00;0.62;0.00;0.00;0.62;3.90;3.30;;;27.20;40.30;;;;;;2253233;61;20391;-57
2021/09/10 02:13:29;0.00;0.00;0.62;0.00;0.00;0.62;3.67;3.37;;;27.30;40.40;;;;;;2253998;61;20372;-55
2021/09/10 02:16:15;0.00;0.00;0.62;0.00;0.00;0.62;4.40;3.50;;;27.30;40.30;;;;;;2253580;61;20392;-57
2021/09/10 02:18:59;0.00;0.00;0.62;0.00;0.00;0.62;3.90;3.50;;;27.40;40.30;;;;;;2253578;61;20380;-53
2021/09/10 02:21:44;0.00;0.00;0.62;0.00;0.00;0.62;4.20;3.57;;;27.40;40.20;;;;;;2253945;61;20442;-57
2021/09/10 02:24:28;0.00;0.00;0.62;0.00;0.00;0.62;3.50;3.20;;;27.40;40.10;;;;;;2253498;61;20383;-57
2021/09/10 02:27:13;0.00;0.00;0.62;0.00;0.00;0.62;3.67;3.10;;;27.40;40.00;;;;;;2253660;61;20388;-54
2021/09/10 02:29:57;0.00;0.00;0.62;0.00;0.00;0.62;3.50;3.03;;;27.50;40.00;;;;;;2253884;61;20356;-54
2021/09/10 02:32:43;0.00;0.00;0.62;0.00;0.00;0.62;3.83;3.43;;;27.50;40.00;;;;;;2253506;61;20391;-54
2021/09/10 02:35:27;0.00;0.00;0.62;0.00;0.00;0.62;3.83;3.23;;;27.60;39.90;;;;;;2253917;61;20364;-54
2021/09/10 02:38:12;0.00;0.00;0.62;0.00;0.00;0.62;4.50;3.47;;;27.60;40.00;;;;;;2254004;61;20368;-57
2021/09/10 02:40:57;0.00;0.00;0.62;0.00;0.00;0.62;4.20;3.63;;;27.70;40.00;;;;;;2253168;61;20426;-54
2021/09/10 02:43:42;0.00;0.00;0.62;0.00;0.00;0.62;4.63;4.13;;;27.70;39.90;;;;;;2253876;61;20729;-54
2021/09/10 02:46:26;0.00;0.00;0.62;0.00;0.00;0.62;4.20;3.57;;;27.70;39.90;;;;;;2253723;61;20355;-55
2021/09/10 02:49:12;0.00;0.00;0.62;0.00;0.00;0.62;4.67;4.17;;;27.80;39.80;;;;;;2253707;61;20410;-54
2021/09/10 02:51:57;0.00;0.00;0.62;0.00;0.00;0.62;4.50;4.10;;;27.80;40.00;;;;;;2253852;61;20399;-54
2021/09/10 02:54:42;0.00;0.00;0.62;0.00;0.00;0.62;4.70;4.30;;;27.80;39.80;;;;;;2253479;61;20360;-56
2021/09/10 02:57:27;0.00;0.00;0.62;0.00;0.00;0.62;5.00;4.30;;;27.80;39.90;;;;;;2253584;61;20359;-55
2021/09/10 03:00:13;0.00;0.00;0.62;0.00;0.00;0.62;6.37;4.10;;;27.80;39.90;;;;;;2253779;61;20364;-55
2021/09/10 03:02:59;0.00;0.00;0.62;0.00;0.00;0.62;5.43;4.90;;;27.80;40.00;;;;;;2253201;61;20419;-54
2021/09/10 03:05:45;0.00;0.00;0.62;0.00;0.00;0.62;6.10;4.80;;;27.80;40.20;;;;;;2253798;61;20375;-53
2021/09/10 03:08:29;0.00;0.00;0.62;0.00;0.00;0.62;7.10;5.20;;;27.80;40.40;;;;;;2253653;61;20438;-57
2021/09/10 03:11:14;0.00;0.00;0.62;0.00;0.00;0.62;5.73;5.13;;;27.70;40.40;;;;;;2253452;61;20465;-55
2021/09/10 03:13:58;0.00;0.00;0.62;0.00;0.00;0.62;9.40;5.50;;;27.70;40.50;;;;;;2253391;61;20380;-56
2021/09/10 03:16:43;0.00;0.00;0.62;0.00;0.00;0.62;5.27;4.80;;;27.70;40.60;;;;;;2253397;61;20575;-57
2021/09/10 03:19:28;0.00;0.00;0.62;0.00;0.00;0.62;9.13;6.13;;;27.70;40.80;;;;;;2253429;61;20391;-56
2021/09/10 03:22:14;0.00;0.00;0.62;0.00;0.00;0.62;6.27;5.67;;;27.60;40.90;;;;;;2253798;61;20377;-58
2021/09/10 03:24:59;0.00;0.00;0.62;0.00;0.00;0.62;5.83;5.23;;;27.60;41.20;;;;;;2252945;61;20363;-60
2021/09/10 03:27:43;0.00;0.00;0.62;0.00;0.00;0.62;7.10;5.83;;;27.50;41.50;;;;;;2253790;61;20403;-55
2021/09/10 03:30:28;0.00;0.00;0.62;0.00;0.00;0.62;5.93;5.33;;;27.50;41.60;;;;;;2253506;61;20478;-58
2021/09/10 03:33:13;0.00;0.00;0.62;0.00;0.00;0.62;6.90;5.50;;;27.40;41.50;;;;;;2253093;61;20459;-54
2021/09/10 03:35:57;0.00;0.00;0.62;0.00;0.00;0.62;8.90;5.70;;;27.40;41.70;;;;;;2253779;61;20423;-56
2021/09/10 03:38:43;0.00;0.00;0.62;0.00;0.00;0.62;9.10;6.07;;;27.40;42.10;;;;;;2253559;61;20383;-55
2021/09/10 03:41:28;0.00;0.00;0.62;0.00;0.00;0.62;9.73;7.13;;;27.30;42.30;;;;;;2253340;61;20706;-61
2021/09/10 03:44:12;0.00;0.00;0.62;0.00;0.00;0.62;9.70;6.47;;;27.30;42.50;;;;;;2253770;61;20360;-56
2021/09/10 03:47:04;0.00;0.00;0.62;0.00;0.00;0.62;7.17;6.40;;;27.30;42.80;;;;;;2252990;61;20383;-58
2021/09/10 03:49:49;0.00;0.00;0.62;0.00;0.00;0.62;6.27;5.67;;;27.20;43.00;;;;;;2253674;61;20423;-56
2021/09/10 03:52:34;0.00;0.00;0.62;0.00;0.00;0.62;8.30;6.40;;;27.20;43.20;;;;;;2253596;61;20387;-56
2021/09/10 03:55:19;0.00;0.00;0.62;0.00;0.00;0.62;7.37;6.63;;;27.10;43.50;;;;;;2252745;61;20391;-54
2021/09/10 03:58:04;0.00;0.00;0.62;0.00;0.00;0.62;7.03;6.33;;;27.10;43.60;;;;;;2253836;61;20404;-57
2021/09/10 04:00:49;0.00;0.00;0.62;0.00;0.00;0.62;6.37;5.77;;;27.00;43.60;;;;;;2253123;61;20392;-58
2021/09/10 04:03:34;0.00;0.00;0.62;0.00;0.00;0.62;7.00;6.30;;;27.00;43.70;;;;;;2253380;61;20376;-54
2021/09/10 04:06:22;0.00;0.00;0.62;0.00;0.00;0.62;12.43;7.17;;;27.00;43.80;;;;;;2253835;61;20367;-55
2021/09/10 04:09:07;0.00;0.00;0.62;0.00;0.00;0.62;13.83;6.30;;;27.00;43.80;;;;;;2252966;61;20647;-58
2021/09/10 04:11:53;0.00;0.00;0.62;0.00;0.00;0.62;7.43;5.53;;;27.00;44.10;;;;;;2253638;61;20384;-58
2021/09/10 04:14:38;0.00;0.00;0.62;0.00;0.00;0.62;7.17;6.33;;;27.00;44.10;;;;;;2253694;61;20360;-58
2021/09/10 04:17:22;0.00;0.00;0.62;0.00;0.00;0.62;8.47;5.97;;;27.00;44.20;;;;;;2253225;61;20411;-56
2021/09/10 04:20:08;0.00;0.00;0.62;0.00;0.00;0.62;7.40;6.23;;;26.90;44.10;;;;;;2253634;61;20359;-53
2021/09/10 04:22:53;0.00;0.00;0.62;0.00;0.00;0.62;8.17;5.80;;;27.00;44.20;;;;;;2253164;61;20403;-56
2021/09/10 04:25:38;0.00;0.00;0.62;0.00;0.00;0.62;7.17;5.97;;;27.00;44.10;;;;;;2253308;61;20356;-56
2021/09/10 04:28:24;0.00;0.00;0.62;0.00;0.00;0.62;6.73;4.83;;;27.00;44.00;;;;;;2253741;61;20368;-57
2021/09/10 04:31:09;0.00;0.00;0.62;0.00;0.00;0.62;7.83;5.67;;;27.00;44.00;;;;;;2252965;61;20600;-54
2021/09/10 04:33:53;0.00;0.00;0.62;0.00;0.00;0.62;7.83;4.93;;;27.00;44.00;;;;;;2253676;61;20610;-53
2021/09/10 04:36:38;0.00;0.00;0.62;0.00;0.00;0.62;5.70;5.00;;;27.00;43.80;;;;;;2253593;61;20360;-55
2021/09/10 04:39:23;0.00;0.00;0.62;0.00;0.00;0.62;7.23;5.27;;;27.10;43.90;;;;;;2252772;61;20404;-52
2021/09/10 04:42:08;0.00;0.00;0.62;0.00;0.00;0.62;5.63;5.03;;;27.10;43.90;;;;;;2253739;61;20407;-51
2021/09/10 04:44:53;0.00;0.00;0.62;0.00;0.00;0.62;7.00;5.30;;;27.10;43.90;;;;;;2253679;61;20359;-57
2021/09/10 04:47:38;0.00;0.00;0.62;0.00;0.00;0.62;6.00;5.30;;;27.20;44.00;;;;;;2253910;61;20473;-56
2021/09/10 04:50:23;0.00;0.00;0.62;0.00;0.00;0.62;6.30;4.77;;;27.20;43.90;;;;;;2254281;61;20399;-55
2021/09/10 04:53:08;0.00;0.00;0.62;0.00;0.00;0.62;6.80;4.97;;;27.20;43.80;;;;;;2253830;61;20419;-56
2021/09/10 04:55:52;0.00;0.00;0.62;0.00;0.00;0.62;8.50;5.80;;;27.20;43.80;;;;;;2254134;61;20747;-51
2021/09/10 04:58:37;0.00;0.00;0.62;0.00;0.00;0.62;6.00;5.40;;;27.30;43.70;;;;;;2254350;61;20364;-53
2021/09/10 05:01:23;0.00;0.00;0.62;0.00;0.00;0.62;6.50;5.87;;;27.30;43.70;;;;;;2253474;61;20387;-55
2021/09/10 05:04:08;0.00;0.00;0.62;0.00;0.00;0.62;6.30;5.70;;;27.30;43.70;;;;;;2254363;61;20355;-54
2021/09/10 05:06:53;0.00;0.00;0.62;0.00;0.00;0.62;6.50;5.20;;;27.40;43.80;;;;;;2254091;61;20724;-56
2021/09/10 05:09:37;0.00;0.00;0.62;0.00;0.00;0.62;6.00;5.40;;;27.40;43.70;;;;;;2253855;61;20443;-53
2021/09/10 05:12:22;0.00;0.00;0.62;0.00;0.00;0.62;5.30;4.80;;;27.30;43.70;;;;;;2254262;61;20659;-55
2021/09/10 05:15:08;0.00;0.00;0.62;0.00;0.00;0.62;7.50;5.53;;;27.30;43.70;;;;;;2253789;61;20435;-56
2021/09/10 05:17:54;0.00;0.00;0.62;0.00;0.00;0.62;8.50;5.00;;;27.40;43.70;;;;;;2254086;61;20422;-57
2021/09/10 05:20:40;0.00;0.00;0.62;0.00;0.00;0.62;5.00;4.43;;;27.40;43.70;;;;;;2254104;61;20396;-55
2021/09/10 05:23:24;0.00;0.00;0.62;0.00;0.00;0.62;6.93;5.67;;;27.40;43.60;;;;;;2253505;61;20807;-52
2021/09/10 05:26:09;0.00;0.00;0.62;0.00;0.00;0.62;5.50;5.10;;;27.50;43.60;;;;;;2254355;61;20731;-57
2021/09/10 05:28:53;0.00;0.00;0.62;0.00;0.00;0.62;6.73;6.10;;;27.50;43.60;;;;;;2253999;61;20727;-56
2021/09/10 05:31:38;0.00;0.00;0.62;0.00;0.00;0.62;7.17;5.10;;;27.50;43.60;;;;;;2253549;61;20419;-55
2021/09/10 05:34:24;0.00;0.00;0.62;0.00;0.00;0.62;6.50;5.60;;;27.50;43.60;;;;;;2254276;61;20612;-52
2021/09/10 05:37:08;0.00;0.00;0.62;0.00;0.00;0.62;6.90;5.73;;;27.50;43.60;;;;;;2253728;61;20727;-52
2021/09/10 05:39:53;0.00;0.00;0.62;0.00;0.00;0.62;5.70;5.20;;;27.50;43.60;;;;;;2253835;61;20364;-57
2021/09/10 05:42:38;0.00;0.00;0.62;0.00;0.00;0.62;6.47;5.80;;;27.50;43.60;;;;;;2254223;61;20398;-55
2021/09/10 05:45:23;0.00;0.00;0.62;0.00;0.00;0.62;6.17;5.57;;;27.40;43.60;;;;;;2253322;61;20661;-54
2021/09/10 05:48:07;0.00;0.00;0.62;0.00;0.00;0.62;6.87;5.87;;;27.50;43.60;;;;;;2254088;61;20624;-57
2021/09/10 05:50:53;0.00;0.00;0.62;0.00;0.00;0.62;4.63;4.23;;;27.50;43.60;;;;;;2254005;61;20635;-56
2021/09/10 05:53:38;0.00;0.00;0.62;0.00;0.00;0.62;7.10;5.90;;;27.50;43.70;;;;;;2253625;61;20500;-58
2021/09/10 05:56:23;0.00;0.00;0.62;0.00;0.00;0.62;6.30;5.70;;;27.50;43.60;;;;;;2253951;61;20583;-55
2021/09/10 05:59:07;0.00;0.00;0.62;0.00;0.00;0.62;7.23;6.03;;;27.50;43.60;;;;;;2253705;61;20407;-54
2021/09/10 06:01:52;0.00;0.00;0.62;0.00;0.00;0.62;6.43;5.80;;;27.50;43.60;;;;;;2253750;61;20750;-56
2021/09/10 06:04:36;0.00;0.00;0.62;0.00;0.00;0.62;8.30;5.30;;;27.50;43.60;;;;;;2254070;61;20391;-57
2021/09/10 06:07:22;0.00;0.00;0.62;0.00;0.00;0.62;6.60;6.00;;;27.50;43.60;;;;;;2253702;61;20448;-52
2021/09/10 06:10:08;0.00;0.00;0.62;0.00;0.00;0.62;5.20;4.70;;;27.50;43.60;;;;;;2254016;61;20364;-56
2021/09/10 06:12:52;0.00;0.00;0.62;0.00;0.00;0.62;6.40;5.80;;;27.60;43.70;;;;;;2254086;61;20427;-55
2021/09/10 06:15:37;0.00;0.00;0.62;0.00;0.00;0.62;6.47;5.20;;;27.50;43.60;;;;;;2253470;61;20521;-53
2021/09/10 06:18:22;0.00;0.00;0.62;0.00;0.00;0.62;8.47;6.60;;;27.50;43.60;;;;;;2253920;61;20364;-58
2021/09/10 06:21:06;0.00;0.00;0.62;0.00;0.00;0.62;7.60;5.67;;;27.60;43.80;;;;;;2253525;61;20380;-56
2021/09/10 06:23:54;0.00;0.00;0.62;0.00;0.00;0.62;7.00;5.57;;;27.60;43.80;;;;;;2253687;61;20520;-59
2021/09/10 06:26:38;0.00;0.00;0.62;0.00;0.00;0.62;7.07;5.37;;;27.60;43.90;;;;;;2254098;61;20356;-59
2021/09/10 06:29:23;0.00;0.00;0.62;0.00;0.00;0.62;6.43;5.57;;;27.60;43.90;;;;;;2253273;61;20395;-60
2021/09/10 06:32:07;0.00;0.00;0.62;0.00;0.00;0.62;6.83;5.50;;;27.50;43.70;;;;;;2253789;61;20410;-57
2021/09/10 06:34:52;0.00;0.00;0.62;0.00;0.00;0.62;6.30;5.10;;;27.60;43.80;;;;;;2254087;61;20443;-58
2021/09/10 06:37:36;0.00;0.00;0.62;0.00;0.00;0.62;5.60;4.50;;;27.60;43.80;;;;;;2253186;61;20364;-60
2021/09/10 06:40:22;0.00;0.00;0.62;0.00;0.00;0.62;8.13;4.90;;;27.60;43.70;;;;;;2253856;61;20411;-55
2021/09/10 06:43:07;0.00;0.00;0.62;0.00;0.00;0.62;6.83;5.67;;;27.70;43.70;;;;;;2253309;61;20407;-58
2021/09/10 06:45:51;0.00;0.00;0.62;0.00;0.00;0.62;8.73;5.00;;;27.70;43.70;;;;;;2253622;61;20432;-59
2021/09/10 06:48:36;0.00;0.00;0.62;0.00;0.00;0.62;6.90;5.33;;;27.70;43.60;;;;;;2253317;61;20368;-53
2021/09/10 06:51:21;0.00;0.00;0.62;0.00;0.00;0.62;5.53;5.03;;;27.80;43.70;;;;;;2253414;61;20460;-56
2021/09/10 06:54:05;0.00;0.00;0.62;0.00;0.00;0.62;7.73;5.43;;;27.80;43.60;;;;;;2253317;61;20455;-58
2021/09/10 06:56:51;0.00;0.00;0.62;0.00;0.00;0.62;6.07;5.47;;;27.80;43.60;;;;;;2253951;61;20363;-58
2021/09/10 06:59:36;0.00;0.00;0.62;0.00;0.00;0.62;4.47;4.07;;;27.80;43.50;;;;;;2252907;61;20982;-53
2021/09/10 07:02:20;0.00;0.00;0.62;0.00;0.00;0.62;7.60;4.80;;;27.90;43.60;;;;;;2254004;61;20407;-55
2021/09/10 07:05:06;0.00;0.00;0.62;0.00;0.00;0.62;5.03;4.23;;;27.90;43.60;;;;;;2253941;61;20363;-56
2021/09/10 07:07:52;0.00;0.00;0.62;0.00;0.00;0.62;5.40;4.90;;;27.90;43.50;;;;;;2253130;61;20387;-59
2021/09/10 07:10:37;0.00;0.00;0.62;0.00;0.00;0.62;6.20;4.60;;;28.00;43.40;;;;;;2253872;61;20380;-55
2021/09/10 07:13:22;0.00;0.00;0.62;0.00;0.00;0.62;7.03;6.03;;;28.00;43.40;;;;;;2253422;61;20419;-56
2021/09/10 07:16:07;0.00;0.00;0.62;0.00;0.00;0.62;5.93;4.97;;;28.00;43.40;;;;;;2253649;61;20364;-59
2021/09/10 07:18:52;0.00;0.00;0.62;0.00;0.00;0.62;9.50;5.77;;;28.00;43.40;;;;;;2253905;61;20360;-59
2021/09/10 07:21:36;0.00;0.00;0.62;0.00;0.00;0.62;8.30;5.50;;;28.10;43.40;;;;;;2253219;61;20411;-59
2021/09/10 07:24:21;0.00;0.00;0.62;0.00;0.00;0.62;7.90;5.10;;;28.10;43.30;;;;;;2253919;61;20427;-60
2021/09/10 07:27:06;0.00;0.00;0.62;0.00;0.00;0.62;6.40;5.80;;;28.10;43.30;;;;;;2253833;61;20359;-60
2021/09/10 07:29:51;0.00;0.00;0.62;0.00;0.00;0.62;6.63;5.20;;;28.10;43.30;;;;;;2253190;61;20403;-54
2021/09/10 07:32:36;0.00;0.00;0.62;0.00;0.00;0.62;7.80;6.30;;;28.10;43.20;;;;;;2253945;61;20386;-59
2021/09/10 07:35:20;0.00;0.00;0.62;0.00;0.00;0.62;10.57;6.53;;;28.10;43.20;;;;;;2253370;61;20371;-60
2021/09/10 07:38:05;0.00;0.00;0.62;0.00;0.00;0.62;9.20;7.00;;;28.20;43.20;;;;;;2253579;61;20359;-58
2021/09/10 07:40:50;0.00;0.00;0.62;0.00;0.00;0.62;7.80;6.37;;;28.20;43.20;;;;;;2253814;61;20453;-55
2021/09/10 07:43:34;0.00;0.00;0.62;0.00;0.00;0.62;8.00;7.17;;;28.10;43.10;;;;;;2253350;61;20399;-57
2021/09/10 07:46:20;0.00;0.00;0.62;0.00;0.00;0.62;7.47;6.77;;;28.10;43.20;;;;;;2253944;61;20456;-60
2021/09/10 07:49:05;0.00;0.00;0.62;0.00;0.00;0.62;8.53;7.07;;;28.10;43.30;;;;;;2253746;61;20499;-56
2021/09/10 07:51:52;0.00;0.00;0.62;0.00;0.00;0.62;8.17;7.47;;;28.00;43.40;;;;;;2253177;61;20387;-59
2021/09/10 07:54:37;0.00;0.00;0.62;0.00;0.00;0.62;6.70;6.10;;;28.00;43.50;;;;;;2253940;61;20428;-59
2021/09/10 07:57:21;0.00;0.00;0.62;0.00;0.00;0.62;7.27;6.57;;;27.90;43.60;;;;;;2253241;61;20620;-55
2021/09/10 08:00:07;0.00;0.00;0.62;0.00;0.00;0.62;8.73;6.70;;;27.90;43.60;;;;;;2253368;61;20400;-59
2021/09/10 08:02:53;0.00;0.00;0.62;0.00;0.00;0.62;6.80;6.20;;;27.80;43.80;;;;;;2253852;61;20402;-55
2021/09/10 08:05:38;0.00;0.00;0.62;0.00;0.00;0.62;6.03;5.53;;;27.80;43.90;;;;;;2253238;61;20470;-55
2021/09/10 08:08:23;0.00;0.00;0.62;0.00;0.00;0.62;6.87;6.17;;;27.70;43.90;;;;;;2253784;61;20443;-55
2021/09/10 08:11:07;0.00;0.00;0.62;0.00;0.00;0.62;7.90;6.53;;;27.70;44.00;;;;;;2253590;61;20435;-56
2021/09/10 08:13:52;0.00;0.00;0.62;0.00;0.00;0.62;13.00;6.90;;;27.70;44.00;;;;;;2252927;61;20391;-57
2021/09/10 08:16:37;0.00;0.00;0.62;0.00;0.00;0.62;8.70;6.80;;;27.70;44.10;;;;;;2253783;61;20631;-57
2021/09/10 08:19:23;0.00;0.00;0.62;0.00;0.00;0.62;7.87;7.20;;;27.70;44.20;;;;;;2253907;61;20735;-58
2021/09/10 08:22:08;0.00;0.00;0.62;0.00;0.00;0.62;7.53;6.40;;;27.60;44.30;;;;;;2254078;61;20435;-56
2021/09/10 08:24:52;0.00;0.00;0.62;0.00;0.00;0.62;7.40;6.17;;;27.60;44.30;;;;;;2254385;61;20395;-55
2021/09/10 08:27:37;0.00;0.00;0.62;0.00;0.00;0.62;7.00;6.40;;;27.60;44.40;;;;;;2254002;61;20363;-54
2021/09/10 08:30:22;0.00;0.00;0.62;0.00;0.00;0.62;7.93;7.23;;;27.60;44.50;;;;;;2253675;61;20359;-57
2021/09/10 08:33:10;0.00;0.00;0.62;0.00;0.00;0.62;8.90;7.23;;;27.60;44.60;;;;;;2254318;61;20383;-57
2021/09/10 08:35:55;0.00;0.00;0.62;0.00;0.00;0.62;8.40;7.20;;;27.60;44.60;;;;;;2253632;61;20579;-58
2021/09/10 08:38:40;0.00;0.00;0.62;0.00;0.00;0.62;7.67;7.07;;;27.60;44.70;;;;;;2254511;61;20360;-56
2021/09/10 08:41:27;0.00;0.00;0.62;0.00;0.00;0.62;9.00;8.10;;;27.50;44.70;;;;;;2254111;61;20411;-53
2021/09/10 08:44:17;0.00;0.00;0.62;0.00;0.00;0.62;7.90;7.10;;;27.50;44.80;;;;;;2253950;61;20355;-59
2021/09/10 08:47:01;0.00;0.00;0.62;0.00;0.00;0.62;8.30;7.60;;;27.50;44.90;;;;;;2254402;61;20616;-57
2021/09/10 08:49:46;0.00;0.00;0.62;0.00;0.00;0.62;7.83;7.13;;;27.40;44.80;;;;;;2253802;61;20356;-57
2021/09/10 08:52:32;0.00;0.00;0.62;0.00;0.00;0.62;7.60;6.90;;;27.40;44.90;;;;;;2254056;61;20419;-53
2021/09/10 08:55:17;0.00;0.00;0.62;0.00;0.00;0.62;7.70;6.90;;;27.40;45.00;;;;;;2254380;61;20687;-54
2021/09/10 08:58:02;0.00;0.00;0.62;0.00;0.00;0.62;8.00;7.20;;;27.40;45.20;;;;;;2253621;61;20720;-56
2021/09/10 09:00:47;0.00;0.00;0.62;0.00;0.00;0.62;9.60;7.13;;;27.40;45.20;;;;;;2254211;61;20371;-55
2021/09/10 09:03:34;0.00;0.00;0.62;0.00;0.00;0.62;9.30;7.30;;;27.40;46.00;;;;;;2254179;61;20392;-57
2021/09/10 09:06:32;0.00;0.00;0.62;0.00;0.00;0.62;7.50;6.83;;;27.40;45.40;;;;;;2253908;61;20364;-55
2021/09/10 09:09:39;0.00;0.00;0.62;0.00;0.00;0.62;8.70;7.80;;;27.30;45.40;;;;;;2254242;61;20648;-58
2021/09/10 09:12:26;0.00;0.00;0.62;0.00;0.00;0.62;8.80;7.27;;;27.40;45.60;;;;;;2253676;61;20775;-57
2021/09/10 09:15:11;0.00;0.00;0.62;0.00;0.00;0.62;7.90;7.10;;;27.30;45.70;;;;;;2254309;61;20371;-53
2021/09/10 09:17:55;0.00;0.00;0.62;0.00;0.00;0.62;8.30;7.50;;;27.40;45.70;;;;;;2254379;61;20379;-56
2021/09/10 09:20:46;0.00;0.00;0.62;0.00;0.00;0.62;7.77;6.87;;;27.40;45.80;;;;;;2253484;61;20380;-56
2021/09/10 09:23:31;0.00;0.00;0.62;0.00;0.00;0.62;8.13;7.43;;;27.40;45.80;;;;;;2254230;61;20612;-55
2021/09/10 09:26:20;0.00;0.00;0.62;0.00;0.00;0.62;9.50;8.50;;;27.40;45.80;;;;;;2253787;61;20365;-58
2021/09/10 09:29:08;0.00;0.00;0.62;0.00;0.00;0.62;8.37;7.50;;;27.40;45.80;;;;;;2253777;61;20360;-55
2021/09/10 09:31:55;0.00;0.00;0.62;0.00;0.00;0.62;10.80;7.80;;;27.40;45.80;;;;;;2254253;61;20868;-52
2021/09/10 09:34:47;0.00;0.00;0.62;0.00;0.00;0.62;9.57;8.67;;;27.50;45.80;;;;;;2253960;61;20383;-54
2021/09/10 09:37:34;0.00;0.00;0.62;0.00;0.00;0.62;8.83;8.00;;;27.50;45.80;;;;;;2254097;61;20680;-53
2021/09/10 09:40:18;0.00;0.00;0.62;0.00;0.00;0.62;9.13;8.10;;;27.50;45.80;;;;;;2254026;61;20364;-55
2021/09/10 09:43:16;0.00;0.00;0.62;0.00;0.00;0.62;8.80;8.00;;;27.60;45.80;;;;;;2253646;61;20398;-55
2021/09/10 09:46:05;0.00;0.00;0.62;0.00;0.00;0.62;9.53;8.47;;;27.60;45.70;;;;;;2254208;61;20364;-56
2021/09/10 09:48:51;0.00;0.00;0.62;0.00;0.00;0.62;8.43;7.73;;;27.60;45.70;;;;;;2253743;61;20432;-59
2021/09/10 09:51:55;0.00;0.00;0.62;0.00;0.00;0.62;10.20;8.47;;;27.60;45.70;;;;;;2253796;61;20379;-53
2021/09/10 09:54:40;0.00;0.00;0.62;0.00;0.00;0.62;9.10;8.20;;;27.60;45.70;;;;;;2254288;61;20411;-54
2021/09/10 09:57:26;0.00;0.00;0.62;0.00;0.00;0.62;8.70;7.60;;;27.60;45.80;;;;;;2252926;61;20367;-54
2021/09/10 10:00:13;0.00;0.00;0.62;0.00;0.00;0.62;8.67;7.80;;;27.60;45.90;;;;;;2254020;61;20356;-57
2021/09/10 10:03:01;0.00;0.00;0.62;0.00;0.00;0.62;8.73;7.67;;;27.70;45.80;;;;;;2254102;61;20360;-52
2021/09/10 10:06:10;0.00;0.00;0.62;0.00;0.00;0.62;8.70;7.90;;;27.70;45.80;;;;;;2253812;61;20359;-56
2021/09/10 10:09:02;0.00;0.00;0.62;0.00;0.00;0.62;7.97;7.07;;;27.70;45.80;;;;;;2254138;61;20396;-58
2021/09/10 10:11:54;0.00;0.00;0.62;0.00;0.00;0.62;8.70;8.00;;;27.70;45.80;;;;;;2253017;61;20399;-60
2021/09/10 10:14:42;0.00;0.00;0.62;0.00;0.00;0.62;9.93;7.60;;;27.80;45.90;;;;;;2254048;61;20418;-58
2021/09/10 10:17:37;0.00;0.00;0.62;0.00;0.00;0.62;11.00;10.00;;;27.80;45.80;;;;;;2253626;61;20399;-54
2021/09/10 10:20:51;0.00;0.00;0.62;0.00;0.00;0.62;9.77;8.93;;;27.90;45.80;;;;;;2253583;61;20367;-60
2021/09/10 10:23:56;0.00;0.00;0.62;0.00;0.00;0.62;10.27;9.27;;;27.90;45.70;;;;;;2253948;61;20352;-57
2021/09/10 10:26:41;0.00;0.00;0.62;0.00;0.00;0.62;9.87;8.93;;;28.00;45.70;;;;;;2253391;61;20376;-60
2021/09/10 10:29:36;0.00;0.00;0.62;0.00;0.00;0.62;12.50;11.30;;;28.00;45.50;;;;;;2253941;61;20363;-56
2021/09/10 10:32:32;0.00;0.00;0.62;0.00;0.00;0.62;10.10;9.20;;;28.00;45.50;;;;;;2253873;61;20678;-58
2021/09/10 10:35:24;0.00;0.00;0.62;0.00;0.00;0.62;10.90;9.90;;;28.10;45.50;;;;;;2253847;61;20433;-61
2021/09/10 10:38:11;0.00;0.00;0.62;0.00;0.00;0.62;11.17;10.07;;;28.10;45.40;;;;;;2254158;61;20736;-57
2021/09/10 10:40:55;0.00;0.00;0.62;0.00;0.00;0.62;11.60;10.50;;;28.20;45.40;;;;;;2253574;61;20791;-56
2021/09/10 10:43:40;0.00;0.00;0.62;0.00;0.00;0.62;11.10;10.10;;;28.20;45.40;;;;;;2253822;61;20645;-58
2021/09/10 10:46:29;0.00;0.00;0.62;0.00;0.00;0.62;12.50;10.60;;;28.30;45.30;;;;;;2254092;61;20431;-57
2021/09/10 10:49:31;0.00;0.00;0.62;0.00;0.00;0.62;12.23;11.13;;;28.30;45.20;;;;;;2253373;61;20372;-59
2021/09/10 10:52:35;0.00;0.00;0.62;0.00;0.00;0.62;11.60;10.60;;;28.30;45.10;;;;;;2253982;61;20587;-56
2021/09/10 10:55:31;0.00;0.00;0.62;0.00;0.00;0.62;11.47;10.47;;;28.40;45.00;;;;;;2253595;61;20362;-57